sensor_id;sensor_type;location;lat;lon;timestamp;P1;durP1;ratioP1;P2;durP2;ratioP2
27666;SDS011;15074;50.940;5.282;2023-04-03T05:59:30;17.52;;;15.80;;
27666;SDS011;15074;50.940;5.282;2023-04-03T06:01:56;16.00;;;14.68;;
27666;SDS011;15074;50.940;5.282;2023-04-03T06:04:22;16.42;;;14.73;;
27666;SDS011;15074;50.940;5.282;2023-04-03T06:09:16;17.30;;;12.63;;
27666;SDS011;15074;50.940;5.282;2023-04-03T06:11:44;13.00;;;12.00;;
27666;SDS011;15074;50.940;5.282;2023-04-03T06:14:10;12.90;;;11.55;;
27666;SDS011;15074;50.940;5.282;2023-04-03T06:16:36;13.02;;;11.77;;
27666;SDS011;15074;50.940;5.282;2023-04-03T06:19:03;11.00;;;9.95;;
27666;SDS011;15074;50.940;5.282;2023-04-03T06:21:29;10.88;;;9.50;;
27666;SDS011;15074;50.940;5.282;2023-04-03T06:23:55;10.10;;;9.20;;
27666;SDS011;15074;50.940;5.282;2023-04-03T06:26:20;10.88;;;9.30;;
27666;SDS011;15074;50.940;5.282;2023-04-03T06:28:47;11.05;;;8.82;;
27666;SDS011;15074;50.940;5.282;2023-04-03T06:31:13;9.30;;;7.97;;
27666;SDS011;15074;50.940;5.282;2023-04-03T06:33:38;9.30;;;8.30;;
27666;SDS011;15074;50.940;5.282;2023-04-03T06:36:04;8.40;;;7.70;;
27666;SDS011;15074;50.940;5.282;2023-04-03T06:38:32;8.35;;;7.65;;
27666;SDS011;15074;50.940;5.282;2023-04-03T06:40:59;8.48;;;7.88;;
27666;SDS011;15074;50.940;5.282;2023-04-03T06:43:25;8.15;;;7.45;;
27666;SDS011;15074;50.940;5.282;2023-04-03T06:45:51;8.48;;;7.57;;
27666;SDS011;15074;50.940;5.282;2023-04-03T06:48:17;9.70;;;7.38;;
27666;SDS011;15074;50.940;5.282;2023-04-03T06:50:42;7.25;;;6.65;;
27666;SDS011;15074;50.940;5.282;2023-04-03T06:53:08;7.15;;;6.45;;
27666;SDS011;15074;50.940;5.282;2023-04-03T06:55:35;7.65;;;6.95;;
27666;SDS011;15074;50.940;5.282;2023-04-03T06:58:01;6.57;;;5.90;;
27666;SDS011;15074;50.940;5.282;2023-04-03T07:00:27;6.40;;;5.90;;
27666;SDS011;15074;50.940;5.282;2023-04-03T07:02:52;6.20;;;5.63;;
27666;SDS011;15074;50.940;5.282;2023-04-03T07:05:18;7.63;;;6.05;;
27666;SDS011;15074;50.940;5.282;2023-04-03T07:07:44;7.88;;;6.38;;
27666;SDS011;15074;50.940;5.282;2023-04-03T07:10:10;5.68;;;5.10;;
27666;SDS011;15074;50.940;5.282;2023-04-03T07:12:36;5.70;;;5.20;;
27666;SDS011;15074;50.940;5.282;2023-04-03T07:15:03;9.35;;;5.38;;
27666;SDS011;15074;50.940;5.282;2023-04-03T07:17:30;6.95;;;4.63;;
27666;SDS011;15074;50.940;5.282;2023-04-03T07:19:56;5.85;;;4.68;;
27666;SDS011;15074;50.940;5.282;2023-04-03T07:22:22;6.38;;;5.30;;
27666;SDS011;15074;50.940;5.282;2023-04-03T07:24:47;5.07;;;4.00;;
27666;SDS011;15074;50.940;5.282;2023-04-03T07:27:13;5.80;;;5.03;;
27666;SDS011;15074;50.940;5.282;2023-04-03T07:29:39;5.85;;;4.35;;
27666;SDS011;15074;50.940;5.282;2023-04-03T07:32:05;4.88;;;4.38;;
27666;SDS011;15074;50.940;5.282;2023-04-03T07:34:31;4.97;;;4.13;;
27666;SDS011;15074;50.940;5.282;2023-04-03T07:36:58;9.38;;;4.38;;
27666;SDS011;15074;50.940;5.282;2023-04-03T07:39:24;9.13;;;4.28;;
27666;SDS011;15074;50.940;5.282;2023-04-03T07:41:50;5.03;;;4.10;;
27666;SDS011;15074;50.940;5.282;2023-04-03T07:44:16;4.85;;;4.30;;
27666;SDS011;15074;50.940;5.282;2023-04-03T07:46:42;5.40;;;4.18;;
27666;SDS011;15074;50.940;5.282;2023-04-03T07:49:08;4.50;;;4.07;;
27666;SDS011;15074;50.940;5.282;2023-04-03T07:51:33;4.05;;;3.65;;
27666;SDS011;15074;50.940;5.282;2023-04-03T07:54:00;7.07;;;3.75;;
27666;SDS011;15074;50.940;5.282;2023-04-03T07:56:25;3.83;;;3.33;;
27666;SDS011;15074;50.940;5.282;2023-04-03T07:58:51;4.03;;;3.08;;
27666;SDS011;15074;50.940;5.282;2023-04-03T08:01:17;4.53;;;3.40;;
27666;SDS011;15074;50.940;5.282;2023-04-03T08:03:43;4.57;;;3.50;;
27666;SDS011;15074;50.940;5.282;2023-04-03T08:06:08;5.20;;;3.17;;
27666;SDS011;15074;50.940;5.282;2023-04-03T08:08:35;4.05;;;2.80;;
27666;SDS011;15074;50.940;5.282;2023-04-03T08:11:01;3.85;;;3.03;;
27666;SDS011;15074;50.940;5.282;2023-04-03T08:13:28;4.25;;;2.75;;
27666;SDS011;15074;50.940;5.282;2023-04-03T08:15:54;5.05;;;3.17;;
27666;SDS011;15074;50.940;5.282;2023-04-03T08:18:22;4.18;;;2.67;;
27666;SDS011;15074;50.940;5.282;2023-04-03T08:20:49;4.28;;;2.85;;
27666;SDS011;15074;50.940;5.282;2023-04-03T08:23:15;3.50;;;2.40;;
27666;SDS011;15074;50.940;5.282;2023-04-03T08:25:42;3.63;;;2.78;;
27666;SDS011;15074;50.940;5.282;2023-04-03T08:28:11;3.35;;;2.40;;
27666;SDS011;15074;50.940;5.282;2023-04-03T08:30:40;5.43;;;2.70;;
27666;SDS011;15074;50.940;5.282;2023-04-03T08:33:07;3.75;;;2.28;;
27666;SDS011;15074;50.940;5.282;2023-04-03T08:35:37;3.30;;;2.30;;
27666;SDS011;15074;50.940;5.282;2023-04-03T08:38:04;4.00;;;2.63;;
27666;SDS011;15074;50.940;5.282;2023-04-03T08:40:29;4.85;;;2.58;;
27666;SDS011;15074;50.940;5.282;2023-04-03T08:48:21;3.97;;;2.25;;
27666;SDS011;15074;50.940;5.282;2023-04-03T08:50:59;6.78;;;2.72;;
27666;SDS011;15074;50.940;5.282;2023-04-03T08:53:32;6.35;;;2.33;;
27666;SDS011;15074;50.940;5.282;2023-04-03T08:56:02;4.13;;;2.28;;
27666;SDS011;15074;50.940;5.282;2023-04-03T08:58:49;3.63;;;1.77;;
27666;SDS011;15074;50.940;5.282;2023-04-03T09:01:23;4.10;;;2.17;;
27666;SDS011;15074;50.940;5.282;2023-04-03T09:03:49;3.97;;;2.00;;
27666;SDS011;15074;50.940;5.282;2023-04-03T09:06:23;3.25;;;1.80;;
27666;SDS011;15074;50.940;5.282;2023-04-03T09:09:05;2.00;;;1.35;;
27666;SDS011;15074;50.940;5.282;2023-04-03T09:14:36;2.70;;;1.55;;
27666;SDS011;15074;50.940;5.282;2023-04-03T09:17:14;2.58;;;1.30;;
27666;SDS011;15074;50.940;5.282;2023-04-03T09:22:42;3.80;;;1.52;;
27666;SDS011;15074;50.940;5.282;2023-04-03T09:25:27;2.33;;;1.73;;
27666;SDS011;15074;50.940;5.282;2023-04-03T09:27:59;2.38;;;1.38;;
27666;SDS011;15074;50.940;5.282;2023-04-03T09:30:25;2.70;;;1.27;;
27666;SDS011;15074;50.940;5.282;2023-04-03T09:32:53;2.05;;;1.38;;
27666;SDS011;15074;50.940;5.282;2023-04-03T09:35:23;2.63;;;1.45;;
27666;SDS011;15074;50.940;5.282;2023-04-03T09:37:50;3.08;;;1.70;;
27666;SDS011;15074;50.940;5.282;2023-04-03T09:43:16;2.30;;;1.20;;
27666;SDS011;15074;50.940;5.282;2023-04-03T09:45:46;1.90;;;1.35;;
27666;SDS011;15074;50.940;5.282;2023-04-03T09:58:43;2.33;;;1.30;;
27666;SDS011;15074;50.940;5.282;2023-04-03T10:04:13;2.35;;;1.25;;
27666;SDS011;15074;50.940;5.282;2023-04-03T10:06:51;2.80;;;1.48;;
27666;SDS011;15074;50.940;5.282;2023-04-03T10:12:09;2.90;;;1.30;;
27666;SDS011;15074;50.940;5.282;2023-04-03T10:14:40;2.17;;;1.45;;
27666;SDS011;15074;50.940;5.282;2023-04-03T10:17:19;4.40;;;1.42;;
27666;SDS011;15074;50.940;5.282;2023-04-03T10:28:31;2.17;;;0.95;;
27666;SDS011;15074;50.940;5.282;2023-04-03T10:31:15;1.65;;;1.13;;
27666;SDS011;15074;50.940;5.282;2023-04-03T10:34:05;3.33;;;1.10;;
27666;SDS011;15074;50.940;5.282;2023-04-03T10:36:45;3.03;;;1.20;;
27666;SDS011;15074;50.940;5.282;2023-04-03T10:42:08;2.83;;;1.20;;
27666;SDS011;15074;50.940;5.282;2023-04-03T10:44:59;2.60;;;0.90;;
27666;SDS011;15074;50.940;5.282;2023-04-03T10:50:37;2.35;;;1.10;;
27666;SDS011;15074;50.940;5.282;2023-04-03T11:01:56;1.58;;;0.77;;
27666;SDS011;15074;50.940;5.282;2023-04-03T11:04:27;1.65;;;1.00;;
27666;SDS011;15074;50.940;5.282;2023-04-03T11:07:10;1.42;;;0.70;;
27666;SDS011;15074;50.940;5.282;2023-04-03T11:09:43;1.30;;;0.50;;
27666;SDS011;15074;50.940;5.282;2023-04-03T11:12:23;1.85;;;0.90;;
27666;SDS011;15074;50.940;5.282;2023-04-03T11:14:53;0.50;;;0.40;;
27666;SDS011;15074;50.940;5.282;2023-04-03T11:17:23;1.30;;;0.60;;
27666;SDS011;15074;50.940;5.282;2023-04-03T11:22:41;0.70;;;0.50;;
27666;SDS011;15074;50.940;5.282;2023-04-03T11:27:44;1.77;;;0.52;;
27666;SDS011;15074;50.940;5.282;2023-04-03T11:35:45;1.17;;;0.60;;
27666;SDS011;15074;50.940;5.282;2023-04-03T11:38:19;1.77;;;0.68;;
27666;SDS011;15074;50.940;5.282;2023-04-03T11:40:51;2.00;;;0.70;;
27666;SDS011;15074;50.940;5.282;2023-04-03T11:43:26;1.20;;;0.52;;
27666;SDS011;15074;50.940;5.282;2023-04-03T11:45:59;1.97;;;0.60;;
27666;SDS011;15074;50.940;5.282;2023-04-03T11:53:42;1.90;;;0.90;;
27666;SDS011;15074;50.940;5.282;2023-04-03T12:04:13;1.40;;;0.63;;
27666;SDS011;15074;50.940;5.282;2023-04-03T12:09:24;1.10;;;0.53;;
27666;SDS011;15074;50.940;5.282;2023-04-03T12:11:52;1.50;;;0.82;;
27666;SDS011;15074;50.940;5.282;2023-04-03T12:14:18;0.73;;;0.63;;
27666;SDS011;15074;50.940;5.282;2023-04-03T12:16:49;3.63;;;0.90;;
27666;SDS011;15074;50.940;5.282;2023-04-03T12:19:36;2.33;;;1.00;;
27666;SDS011;15074;50.940;5.282;2023-04-03T12:22:12;1.20;;;0.68;;
27666;SDS011;15074;50.940;5.282;2023-04-03T12:24:41;1.38;;;0.75;;
27666;SDS011;15074;50.940;5.282;2023-04-03T12:29:46;1.20;;;0.80;;
27666;SDS011;15074;50.940;5.282;2023-04-03T12:35:28;2.20;;;1.00;;
27666;SDS011;15074;50.940;5.282;2023-04-03T12:41:11;2.30;;;0.80;;
27666;SDS011;15074;50.940;5.282;2023-04-03T12:46:50;1.85;;;0.90;;
27666;SDS011;15074;50.940;5.282;2023-04-03T12:51:48;1.55;;;0.80;;
27666;SDS011;15074;50.940;5.282;2023-04-03T12:54:19;1.73;;;1.20;;
27666;SDS011;15074;50.940;5.282;2023-04-03T12:56:45;1.55;;;0.90;;
27666;SDS011;15074;50.940;5.282;2023-04-03T12:59:22;2.13;;;0.95;;
27666;SDS011;15074;50.940;5.282;2023-04-03T13:01:55;3.15;;;1.10;;
27666;SDS011;15074;50.940;5.282;2023-04-03T13:04:26;2.97;;;1.10;;
27666;SDS011;15074;50.940;5.282;2023-04-03T13:06:53;2.45;;;1.38;;
27666;SDS011;15074;50.940;5.282;2023-04-03T13:12:14;2.35;;;0.90;;
27666;SDS011;15074;50.940;5.282;2023-04-03T13:14:39;2.65;;;1.20;;
27666;SDS011;15074;50.940;5.282;2023-04-03T13:17:15;1.65;;;0.88;;
27666;SDS011;15074;50.940;5.282;2023-04-03T13:19:42;1.70;;;0.82;;
27666;SDS011;15074;50.940;5.282;2023-04-03T13:24:54;2.20;;;1.10;;
27666;SDS011;15074;50.940;5.282;2023-04-03T13:27:22;1.77;;;1.10;;
27666;SDS011;15074;50.940;5.282;2023-04-03T13:29:49;1.80;;;1.08;;
27666;SDS011;15074;50.940;5.282;2023-04-03T13:32:21;2.25;;;1.10;;
27666;SDS011;15074;50.940;5.282;2023-04-03T13:34:49;2.20;;;1.10;;
27666;SDS011;15074;50.940;5.282;2023-04-03T13:37:29;1.58;;;1.00;;
27666;SDS011;15074;50.940;5.282;2023-04-03T13:39:57;2.78;;;1.55;;
27666;SDS011;15074;50.940;5.282;2023-04-03T13:42:33;1.95;;;1.20;;
27666;SDS011;15074;50.940;5.282;2023-04-03T13:47:53;2.00;;;1.40;;
27666;SDS011;15074;50.940;5.282;2023-04-03T13:50:32;1.98;;;1.42;;
27666;SDS011;15074;50.940;5.282;2023-04-03T13:53:02;5.03;;;1.38;;
27666;SDS011;15074;50.940;5.282;2023-04-03T13:55:36;2.15;;;1.00;;
27666;SDS011;15074;50.940;5.282;2023-04-03T13:58:22;3.83;;;1.20;;
27666;SDS011;15074;50.940;5.282;2023-04-03T14:00:58;2.03;;;1.08;;
27666;SDS011;15074;50.940;5.282;2023-04-03T14:06:18;2.63;;;1.40;;
27666;SDS011;15074;50.940;5.282;2023-04-03T14:08:44;2.05;;;1.13;;
27666;SDS011;15074;50.940;5.282;2023-04-03T14:11:15;1.50;;;0.80;;
27666;SDS011;15074;50.940;5.282;2023-04-03T14:13:44;2.60;;;1.20;;
27666;SDS011;15074;50.940;5.282;2023-04-03T14:16:15;2.90;;;1.40;;
27666;SDS011;15074;50.940;5.282;2023-04-03T14:18:44;2.13;;;1.10;;
27666;SDS011;15074;50.940;5.282;2023-04-03T14:21:11;1.63;;;1.00;;
27666;SDS011;15074;50.940;5.282;2023-04-03T14:26:08;1.83;;;1.20;;
27666;SDS011;15074;50.940;5.282;2023-04-03T14:28:46;2.53;;;1.05;;
27666;SDS011;15074;50.940;5.282;2023-04-03T14:31:15;2.30;;;0.93;;
27666;SDS011;15074;50.940;5.282;2023-04-03T14:33:42;2.42;;;1.15;;
27666;SDS011;15074;50.940;5.282;2023-04-03T14:36:18;1.85;;;1.15;;
27666;SDS011;15074;50.940;5.282;2023-04-03T14:41:13;2.42;;;1.20;;
27666;SDS011;15074;50.940;5.282;2023-04-03T14:43:42;3.35;;;1.60;;
27666;SDS011;15074;50.940;5.282;2023-04-03T14:46:14;3.30;;;1.65;;
27666;SDS011;15074;50.940;5.282;2023-04-03T14:48:45;2.78;;;1.10;;
27666;SDS011;15074;50.940;5.282;2023-04-03T14:51:12;2.45;;;1.20;;
27666;SDS011;15074;50.940;5.282;2023-04-03T14:53:39;3.00;;;1.20;;
27666;SDS011;15074;50.940;5.282;2023-04-03T14:56:20;2.20;;;1.23;;
27666;SDS011;15074;50.940;5.282;2023-04-03T14:58:50;3.40;;;1.40;;
27666;SDS011;15074;50.940;5.282;2023-04-03T15:01:21;3.90;;;1.58;;
27666;SDS011;15074;50.940;5.282;2023-04-03T15:03:47;3.13;;;1.23;;
27666;SDS011;15074;50.940;5.282;2023-04-03T15:06:13;6.55;;;1.65;;
27666;SDS011;15074;50.940;5.282;2023-04-03T15:08:41;2.50;;;1.42;;
27666;SDS011;15074;50.940;5.282;2023-04-03T15:11:11;2.53;;;1.20;;
27666;SDS011;15074;50.940;5.282;2023-04-03T15:13:37;2.47;;;1.08;;
27666;SDS011;15074;50.940;5.282;2023-04-03T15:16:04;2.70;;;1.40;;
27666;SDS011;15074;50.940;5.282;2023-04-03T15:18:31;3.10;;;1.30;;
27666;SDS011;15074;50.940;5.282;2023-04-03T15:21:02;2.25;;;1.30;;
27666;SDS011;15074;50.940;5.282;2023-04-03T15:23:28;2.25;;;1.15;;
27666;SDS011;15074;50.940;5.282;2023-04-03T15:25:55;2.20;;;1.15;;
27666;SDS011;15074;50.940;5.282;2023-04-03T15:28:28;2.13;;;1.17;;
27666;SDS011;15074;50.940;5.282;2023-04-03T15:30:57;2.70;;;1.33;;
27666;SDS011;15074;50.940;5.282;2023-04-03T15:33:23;2.45;;;1.27;;
27666;SDS011;15074;50.940;5.282;2023-04-03T15:35:49;2.40;;;1.20;;
27666;SDS011;15074;50.940;5.282;2023-04-03T15:38:15;2.13;;;1.13;;
27666;SDS011;15074;50.940;5.282;2023-04-03T15:40:41;2.40;;;1.17;;
27666;SDS011;15074;50.940;5.282;2023-04-03T15:43:08;2.38;;;1.30;;
27666;SDS011;15074;50.940;5.282;2023-04-03T15:45:35;1.50;;;1.13;;
27666;SDS011;15074;50.940;5.282;2023-04-03T15:48:02;3.47;;;1.45;;
27666;SDS011;15074;50.940;5.282;2023-04-03T15:50:29;2.25;;;1.10;;
27666;SDS011;15074;50.940;5.282;2023-04-03T15:52:55;1.95;;;1.10;;
27666;SDS011;15074;50.940;5.282;2023-04-03T15:55:24;7.00;;;1.27;;
27666;SDS011;15074;50.940;5.282;2023-04-03T15:57:51;2.53;;;1.10;;
27666;SDS011;15074;50.940;5.282;2023-04-03T16:00:17;2.30;;;1.15;;
27666;SDS011;15074;50.940;5.282;2023-04-03T16:02:44;1.65;;;0.85;;
27666;SDS011;15074;50.940;5.282;2023-04-03T16:05:11;3.20;;;1.27;;
27666;SDS011;15074;50.940;5.282;2023-04-03T16:07:38;3.80;;;1.30;;
27666;SDS011;15074;50.940;5.282;2023-04-03T16:10:05;3.03;;;1.20;;
27666;SDS011;15074;50.940;5.282;2023-04-03T16:12:32;2.17;;;1.02;;
27666;SDS011;15074;50.940;5.282;2023-04-03T16:14:57;1.92;;;1.23;;
27666;SDS011;15074;50.940;5.282;2023-04-03T16:17:23;2.53;;;1.10;;
27666;SDS011;15074;50.940;5.282;2023-04-03T16:19:49;2.95;;;1.38;;
27666;SDS011;15074;50.940;5.282;2023-04-03T16:22:15;4.75;;;1.25;;
27666;SDS011;15074;50.940;5.282;2023-04-03T16:24:41;1.98;;;1.10;;
27666;SDS011;15074;50.940;5.282;2023-04-03T16:27:07;2.05;;;0.90;;
27666;SDS011;15074;50.940;5.282;2023-04-03T16:29:32;2.30;;;1.35;;
27666;SDS011;15074;50.940;5.282;2023-04-03T16:31:58;2.47;;;1.40;;
27666;SDS011;15074;50.940;5.282;2023-04-03T16:34:24;1.73;;;0.98;;
27666;SDS011;15074;50.940;5.282;2023-04-03T16:36:50;6.68;;;1.48;;
27666;SDS011;15074;50.940;5.282;2023-04-03T16:39:17;3.30;;;1.20;;
27666;SDS011;15074;50.940;5.282;2023-04-03T16:41:43;1.95;;;1.08;;
27666;SDS011;15074;50.940;5.282;2023-04-03T16:44:10;1.73;;;1.00;;
27666;SDS011;15074;50.940;5.282;2023-04-03T16:46:36;2.22;;;1.20;;
27666;SDS011;15074;50.940;5.282;2023-04-03T16:49:02;1.80;;;1.30;;
27666;SDS011;15074;50.940;5.282;2023-04-03T16:51:28;3.53;;;1.10;;
27666;SDS011;15074;50.940;5.282;2023-04-03T16:53:54;3.08;;;1.02;;
27666;SDS011;15074;50.940;5.282;2023-04-03T16:56:20;4.40;;;1.25;;
27666;SDS011;15074;50.940;5.282;2023-04-03T16:58:47;2.83;;;1.10;;
27666;SDS011;15074;50.940;5.282;2023-04-03T17:01:14;3.25;;;1.20;;
27666;SDS011;15074;50.940;5.282;2023-04-03T17:03:41;4.22;;;0.98;;
27666;SDS011;15074;50.940;5.282;2023-04-03T17:06:07;3.88;;;1.20;;
27666;SDS011;15074;50.940;5.282;2023-04-03T17:08:33;3.17;;;1.20;;
27666;SDS011;15074;50.940;5.282;2023-04-03T17:10:59;3.08;;;1.23;;
27666;SDS011;15074;50.940;5.282;2023-04-03T17:13:25;3.03;;;1.40;;
27666;SDS011;15074;50.940;5.282;2023-04-03T17:15:56;2.78;;;1.25;;
27666;SDS011;15074;50.940;5.282;2023-04-03T17:18:22;3.25;;;1.33;;
27666;SDS011;15074;50.940;5.282;2023-04-03T17:20:47;3.92;;;1.10;;
27666;SDS011;15074;50.940;5.282;2023-04-03T17:23:13;3.17;;;1.50;;
27666;SDS011;15074;50.940;5.282;2023-04-03T17:25:39;3.00;;;1.60;;
27666;SDS011;15074;50.940;5.282;2023-04-03T17:28:04;6.35;;;1.35;;
27666;SDS011;15074;50.940;5.282;2023-04-03T17:30:30;2.75;;;1.38;;
27666;SDS011;15074;50.940;5.282;2023-04-03T17:32:56;3.20;;;1.30;;
27666;SDS011;15074;50.940;5.282;2023-04-03T17:35:21;3.08;;;1.30;;
27666;SDS011;15074;50.940;5.282;2023-04-03T17:37:47;2.08;;;1.13;;
27666;SDS011;15074;50.940;5.282;2023-04-03T17:40:14;3.10;;;1.80;;
27666;SDS011;15074;50.940;5.282;2023-04-03T17:42:42;2.40;;;1.15;;
27666;SDS011;15074;50.940;5.282;2023-04-03T17:45:08;1.90;;;1.40;;
27666;SDS011;15074;50.940;5.282;2023-04-03T17:47:34;3.45;;;1.40;;
27666;SDS011;15074;50.940;5.282;2023-04-03T17:50:00;2.78;;;1.45;;
27666;SDS011;15074;50.940;5.282;2023-04-03T17:52:25;3.88;;;1.52;;
27666;SDS011;15074;50.940;5.282;2023-04-03T17:54:52;2.75;;;1.55;;
27666;SDS011;15074;50.940;5.282;2023-04-03T17:57:18;2.53;;;1.50;;
27666;SDS011;15074;50.940;5.282;2023-04-03T17:59:44;2.38;;;1.27;;
27666;SDS011;15074;50.940;5.282;2023-04-03T18:02:10;3.50;;;1.70;;
27666;SDS011;15074;50.940;5.282;2023-04-03T18:04:36;7.05;;;1.48;;
27666;SDS011;15074;50.940;5.282;2023-04-03T18:07:01;2.78;;;1.40;;
27666;SDS011;15074;50.940;5.282;2023-04-03T18:09:29;3.55;;;1.30;;
27666;SDS011;15074;50.940;5.282;2023-04-03T18:11:57;2.97;;;1.38;;
27666;SDS011;15074;50.940;5.282;2023-04-03T18:14:26;2.63;;;1.30;;
27666;SDS011;15074;50.940;5.282;2023-04-03T18:16:53;5.55;;;1.30;;
27666;SDS011;15074;50.940;5.282;2023-04-03T18:19:21;2.00;;;1.13;;
27666;SDS011;15074;50.940;5.282;2023-04-03T18:21:47;2.20;;;1.38;;
27666;SDS011;15074;50.940;5.282;2023-04-03T18:24:15;2.08;;;1.60;;
27666;SDS011;15074;50.940;5.282;2023-04-03T18:26:44;3.22;;;1.73;;
27666;SDS011;15074;50.940;5.282;2023-04-03T18:29:12;4.75;;;1.48;;
27666;SDS011;15074;50.940;5.282;2023-04-03T18:31:39;5.30;;;1.10;;
27666;SDS011;15074;50.940;5.282;2023-04-03T18:34:08;3.08;;;1.58;;
27666;SDS011;15074;50.940;5.282;2023-04-03T18:36:33;3.50;;;1.50;;
27666;SDS011;15074;50.940;5.282;2023-04-03T18:38:59;4.40;;;1.30;;
27666;SDS011;15074;50.940;5.282;2023-04-03T18:41:26;3.50;;;1.52;;
27666;SDS011;15074;50.940;5.282;2023-04-03T18:43:55;3.97;;;1.73;;
27666;SDS011;15074;50.940;5.282;2023-04-03T18:46:23;2.95;;;1.60;;
27666;SDS011;15074;50.940;5.282;2023-04-03T18:48:49;3.63;;;2.00;;
27666;SDS011;15074;50.940;5.282;2023-04-03T18:51:16;3.05;;;1.40;;
27666;SDS011;15074;50.940;5.282;2023-04-03T18:53:43;2.05;;;1.25;;
27666;SDS011;15074;50.940;5.282;2023-04-03T18:56:08;3.90;;;1.65;;
27666;SDS011;15074;50.940;5.282;2023-04-03T18:58:34;4.65;;;2.05;;
27666;SDS011;15074;50.940;5.282;2023-04-03T19:01:00;4.00;;;1.98;;
27666;SDS011;15074;50.940;5.282;2023-04-03T19:03:27;3.40;;;1.35;;
27666;SDS011;15074;50.940;5.282;2023-04-03T19:05:54;3.37;;;1.40;;
27666;SDS011;15074;50.940;5.282;2023-04-03T19:08:20;2.35;;;1.63;;
27666;SDS011;15074;50.940;5.282;2023-04-03T19:10:46;2.75;;;1.52;;
27666;SDS011;15074;50.940;5.282;2023-04-03T19:13:12;4.40;;;1.75;;
27666;SDS011;15074;50.940;5.282;2023-04-03T19:15:37;2.72;;;1.70;;
27666;SDS011;15074;50.940;5.282;2023-04-03T19:18:03;3.28;;;1.75;;
27666;SDS011;15074;50.940;5.282;2023-04-03T19:20:29;4.00;;;1.50;;
27666;SDS011;15074;50.940;5.282;2023-04-03T19:22:55;3.10;;;1.63;;
27666;SDS011;15074;50.940;5.282;2023-04-03T19:25:20;3.05;;;1.35;;
27666;SDS011;15074;50.940;5.282;2023-04-03T19:27:46;4.82;;;2.08;;
27666;SDS011;15074;50.940;5.282;2023-04-03T19:30:12;3.67;;;1.70;;
27666;SDS011;15074;50.940;5.282;2023-04-03T19:32:38;2.47;;;1.60;;
27666;SDS011;15074;50.940;5.282;2023-04-03T19:35:04;6.05;;;1.80;;
27666;SDS011;15074;50.940;5.282;2023-04-03T19:37:31;2.80;;;1.60;;
27666;SDS011;15074;50.940;5.282;2023-04-03T19:39:57;2.60;;;1.50;;
27666;SDS011;15074;50.940;5.282;2023-04-03T19:42:23;2.90;;;1.70;;
27666;SDS011;15074;50.940;5.282;2023-04-03T19:44:51;4.18;;;1.73;;
27666;SDS011;15074;50.940;5.282;2023-04-03T19:47:17;2.88;;;1.52;;
27666;SDS011;15074;50.940;5.282;2023-04-03T19:49:46;3.42;;;2.03;;
27666;SDS011;15074;50.940;5.282;2023-04-03T19:52:12;2.45;;;1.70;;
27666;SDS011;15074;50.940;5.282;2023-04-03T19:54:37;4.43;;;1.63;;
27666;SDS011;15074;50.940;5.282;2023-04-03T19:57:03;3.35;;;2.28;;
27666;SDS011;15074;50.940;5.282;2023-04-03T19:59:29;2.20;;;1.70;;
27666;SDS011;15074;50.940;5.282;2023-04-03T20:01:55;4.03;;;2.00;;
27666;SDS011;15074;50.940;5.282;2023-04-03T20:04:21;4.75;;;2.00;;
27666;SDS011;15074;50.940;5.282;2023-04-03T20:06:47;3.65;;;2.40;;
27666;SDS011;15074;50.940;5.282;2023-04-03T20:09:14;4.23;;;2.20;;
27666;SDS011;15074;50.940;5.282;2023-04-03T20:11:42;3.25;;;1.67;;
27666;SDS011;15074;50.940;5.282;2023-04-03T20:14:11;5.38;;;1.90;;
27666;SDS011;15074;50.940;5.282;2023-04-03T20:16:37;4.40;;;2.30;;
27666;SDS011;15074;50.940;5.282;2023-04-03T20:19:04;3.75;;;1.90;;
27666;SDS011;15074;50.940;5.282;2023-04-03T20:21:31;3.03;;;1.95;;
27666;SDS011;15074;50.940;5.282;2023-04-03T20:23:58;3.40;;;2.65;;
27666;SDS011;15074;50.940;5.282;2023-04-03T20:26:25;6.80;;;2.72;;
27666;SDS011;15074;50.940;5.282;2023-04-03T20:28:53;4.53;;;2.60;;
27666;SDS011;15074;50.940;5.282;2023-04-03T20:31:21;3.33;;;2.35;;
27666;SDS011;15074;50.940;5.282;2023-04-03T20:33:48;3.60;;;2.20;;
27666;SDS011;15074;50.940;5.282;2023-04-03T20:36:14;3.92;;;2.55;;
27666;SDS011;15074;50.940;5.282;2023-04-03T20:38:41;4.75;;;1.80;;
27666;SDS011;15074;50.940;5.282;2023-04-03T20:41:07;4.47;;;2.75;;
27666;SDS011;15074;50.940;5.282;2023-04-03T20:43:34;3.17;;;2.47;;
27666;SDS011;15074;50.940;5.282;2023-04-03T20:46:00;3.88;;;2.30;;
27666;SDS011;15074;50.940;5.282;2023-04-03T20:48:27;4.47;;;2.53;;
27666;SDS011;15074;50.940;5.282;2023-04-03T20:50:54;2.83;;;2.22;;
27666;SDS011;15074;50.940;5.282;2023-04-03T20:53:20;4.30;;;2.58;;
27666;SDS011;15074;50.940;5.282;2023-04-03T20:58:24;3.35;;;2.42;;
27666;SDS011;15074;50.940;5.282;2023-04-03T21:00:53;4.47;;;2.15;;
27666;SDS011;15074;50.940;5.282;2023-04-03T21:03:20;4.90;;;2.10;;
27666;SDS011;15074;50.940;5.282;2023-04-03T21:05:46;2.45;;;1.60;;
27666;SDS011;15074;50.940;5.282;2023-04-03T21:20:38;1.95;;;1.33;;
27666;SDS011;15074;50.940;5.282;2023-04-03T21:23:04;3.50;;;1.98;;
27666;SDS011;15074;50.940;5.282;2023-04-03T21:25:31;2.58;;;1.50;;
27666;SDS011;15074;50.940;5.282;2023-04-03T21:27:57;4.20;;;1.48;;
27666;SDS011;15074;50.940;5.282;2023-04-03T21:36:38;4.57;;;1.60;;
27666;SDS011;15074;50.940;5.282;2023-04-03T21:39:04;2.83;;;1.58;;
27666;SDS011;15074;50.940;5.282;2023-04-03T21:41:30;1.90;;;1.23;;
27666;SDS011;15074;50.940;5.282;2023-04-03T21:43:55;4.15;;;1.42;;
27666;SDS011;15074;50.940;5.282;2023-04-03T21:46:22;3.25;;;1.48;;
27666;SDS011;15074;50.940;5.282;2023-04-03T21:48:48;2.65;;;1.55;;
27666;SDS011;15074;50.940;5.282;2023-04-03T21:51:15;3.63;;;1.25;;
27666;SDS011;15074;50.940;5.282;2023-04-03T21:53:41;3.95;;;1.50;;
27666;SDS011;15074;50.940;5.282;2023-04-03T21:56:08;2.42;;;1.42;;
27666;SDS011;15074;50.940;5.282;2023-04-03T21:58:35;2.00;;;1.50;;
27666;SDS011;15074;50.940;5.282;2023-04-03T22:01:10;1.88;;;1.27;;
27666;SDS011;15074;50.940;5.282;2023-04-03T22:03:38;4.82;;;1.30;;
27666;SDS011;15074;50.940;5.282;2023-04-03T22:06:07;2.53;;;1.27;;
27666;SDS011;15074;50.940;5.282;2023-04-03T22:08:34;3.83;;;1.92;;
27666;SDS011;15074;50.940;5.282;2023-04-03T22:11:19;2.92;;;1.48;;
27666;SDS011;15074;50.940;5.282;2023-04-03T22:13:49;3.78;;;1.67;;
27666;SDS011;15074;50.940;5.282;2023-04-03T22:16:16;3.55;;;1.20;;
27666;SDS011;15074;50.940;5.282;2023-04-03T22:18:41;1.98;;;1.17;;
27666;SDS011;15074;50.940;5.282;2023-04-03T22:21:07;2.58;;;1.40;;
27666;SDS011;15074;50.940;5.282;2023-04-03T22:23:33;2.85;;;1.30;;
27666;SDS011;15074;50.940;5.282;2023-04-03T22:26:03;2.33;;;1.33;;
27666;SDS011;15074;50.940;5.282;2023-04-03T22:28:34;2.45;;;1.10;;
27666;SDS011;15074;50.940;5.282;2023-04-03T22:31:05;3.13;;;1.55;;
27666;SDS011;15074;50.940;5.282;2023-04-03T22:33:32;3.85;;;1.80;;
27666;SDS011;15074;50.940;5.282;2023-04-03T22:36:01;2.60;;;1.25;;
27666;SDS011;15074;50.940;5.282;2023-04-03T22:38:28;2.80;;;1.35;;
27666;SDS011;15074;50.940;5.282;2023-04-03T22:40:57;2.97;;;1.30;;
27666;SDS011;15074;50.940;5.282;2023-04-03T22:43:28;3.30;;;1.42;;
27666;SDS011;15074;50.940;5.282;2023-04-03T22:45:54;3.50;;;1.65;;
27666;SDS011;15074;50.940;5.282;2023-04-03T22:48:21;5.15;;;1.70;;
27666;SDS011;15074;50.940;5.282;2023-04-03T22:50:48;2.33;;;1.33;;
27666;SDS011;15074;50.940;5.282;2023-04-03T22:53:15;1.83;;;1.50;;
27666;SDS011;15074;50.940;5.282;2023-04-03T22:58:33;2.50;;;1.40;;
27666;SDS011;15074;50.940;5.282;2023-04-03T23:04:03;3.28;;;1.73;;
27666;SDS011;15074;50.940;5.282;2023-04-03T23:06:29;3.83;;;1.60;;
27666;SDS011;15074;50.940;5.282;2023-04-03T23:26:24;4.50;;;1.88;;
27666;SDS011;15074;50.940;5.282;2023-04-03T23:31:54;2.83;;;1.70;;
27666;SDS011;15074;50.940;5.282;2023-04-03T23:34:20;3.30;;;1.55;;